Time;durP1;ratioP1;P1;durP2;ratioP2;P2;SDS_P1;SDS_P2;PMS_P1;PMS_P2;Temp;Humidity;BMP_temperature;BMP_pressure;BME280_temperature;BME280_humidity;BME280_pressure;Samples;Min_cycle;Max_cycle;Signal;HPM_P1;HPM_P2
2023/07/29 00:02:21;;;;;;;18.97;18.37;;;24.30;99.90;;;;;;4950057;29;20492;-64
2023/07/29 00:04:49;;;;;;;18.37;17.77;;;24.30;99.90;;;;;;4950488;29;20673;-65
2023/07/29 00:07:16;;;;;;;19.57;18.80;;;24.20;99.90;;;;;;4950352;28;20480;-63
2023/07/29 00:09:42;;;;;;;19.53;18.57;;;24.20;99.90;;;;;;4948839;28;20495;-64
2023/07/29 00:12:11;;;;;;;18.77;18.17;;;24.20;99.90;;;;;;4942878;28;20520;-65
2023/07/29 00:14:38;;;;;;;17.60;16.97;;;24.20;99.90;;;;;;4950591;28;20481;-66
2023/07/29 00:17:05;;;;;;;17.60;16.90;;;24.20;99.90;;;;;;4950189;29;20484;-64
2023/07/29 00:19:33;;;;;;;17.80;17.20;;;24.10;99.90;;;;;;4949753;28;20484;-64
2023/07/29 00:22:00;;;;;;;17.83;17.23;;;24.10;99.90;;;;;;4950270;28;20472;-64
2023/07/29 00:24:27;;;;;;;18.50;17.90;;;24.10;99.90;;;;;;4950498;28;20476;-64
2023/07/29 00:26:54;;;;;;;19.17;18.47;;;24.10;99.90;;;;;;4950109;29;20481;-66
2023/07/29 00:29:22;;;;;;;18.07;17.47;;;24.10;99.90;;;;;;4945636;28;20512;-63
2023/07/29 00:31:49;;;;;;;19.80;19.10;;;24.10;99.90;;;;;;4944100;28;20504;-64
2023/07/29 00:34:19;;;;;;;19.50;18.80;;;24.10;99.90;;;;;;4950301;29;20444;-65
2023/07/29 00:36:46;;;;;;;25.83;24.90;;;24.00;99.90;;;;;;4950060;29;20456;-65
2023/07/29 00:39:13;;;;;;;18.73;18.07;;;24.00;99.90;;;;;;4949390;28;20485;-65
2023/07/29 00:41:40;;;;;;;19.03;18.33;;;24.00;99.90;;;;;;4946588;28;20481;-64
2023/07/29 00:44:07;;;;;;;18.60;17.93;;;23.90;99.90;;;;;;4950112;28;20480;-63
2023/07/29 00:46:36;;;;;;;18.30;17.70;;;24.00;99.90;;;;;;4950001;28;20449;-66
2023/07/29 00:49:03;;;;;;;17.83;17.27;;;23.90;99.90;;;;;;4949106;29;20488;-64
2023/07/29 00:51:30;;;;;;;19.47;18.63;;;23.90;99.90;;;;;;4950145;28;20468;-65
2023/07/29 00:53:57;;;;;;;17.97;17.47;;;23.90;99.90;;;;;;4949975;28;20512;-65
2023/07/29 00:56:24;;;;;;;19.10;18.40;;;23.90;99.90;;;;;;4950034;28;20514;-65
2023/07/29 00:58:58;;;;;;;19.40;18.60;;;23.90;99.90;;;;;;4948927;29;20488;-63
2023/07/29 01:01:25;;;;;;;20.27;19.57;;;23.90;99.90;;;;;;4949820;28;20484;-64
2023/07/29 01:03:53;;;;;;;20.47;19.77;;;23.90;99.90;;;;;;4949965;28;20477;-64
2023/07/29 01:06:29;;;;;;;19.97;19.37;;;23.90;99.90;;;;;;4949896;29;20476;-65
2023/07/29 01:09:02;;;;;;;18.83;18.23;;;23.80;99.90;;;;;;4949086;28;20484;-64
2023/07/29 01:11:39;;;;;;;19.70;18.87;;;23.80;99.90;;;;;;4946889;28;20480;-64
2023/07/29 01:14:18;;;;;;;19.40;18.70;;;23.80;99.90;;;;;;4949663;28;20538;-64
2023/07/29 01:16:53;;;;;;;18.00;17.40;;;23.80;99.90;;;;;;4949463;29;20492;-65
2023/07/29 01:19:36;;;;;;;18.17;17.60;;;23.80;99.90;;;;;;4949033;28;20531;-65
2023/07/29 01:22:05;;;;;;;18.30;17.43;;;23.80;99.90;;;;;;4951979;28;20504;-63
2023/07/29 01:24:33;;;;;;;18.43;17.53;;;23.80;99.90;;;;;;4953087;28;20524;-65
2023/07/29 01:27:01;;;;;;;18.60;18.00;;;23.80;99.90;;;;;;4952671;29;20503;-64
2023/07/29 01:29:28;;;;;;;20.13;19.43;;;23.80;99.90;;;;;;4952229;28;20884;-65
2023/07/29 01:31:58;;;;;;;19.33;18.63;;;23.70;99.90;;;;;;4952625;28;20918;-65
2023/07/29 01:34:30;;;;;;;18.87;18.27;;;23.80;99.90;;;;;;4952912;29;20875;-64
2023/07/29 01:37:02;;;;;;;19.43;18.83;;;23.70;99.90;;;;;;4952644;28;20499;-64
2023/07/29 01:39:33;;;;;;;18.63;17.93;;;23.70;99.90;;;;;;4949078;28;20538;-63
2023/07/29 01:42:01;;;;;;;17.90;17.30;;;23.70;99.90;;;;;;4949098;29;21007;-64
2023/07/29 01:44:29;;;;;;;18.80;18.10;;;23.70;99.90;;;;;;4952586;28;20480;-64
2023/07/29 01:46:57;;;;;;;18.70;18.10;;;23.70;99.90;;;;;;4952271;28;20495;-64
2023/07/29 01:49:24;;;;;;;19.20;18.57;;;23.70;99.90;;;;;;4951886;28;20496;-65
2023/07/29 01:51:50;;;;;;;19.10;18.50;;;23.70;99.90;;;;;;4952410;28;20504;-65
2023/07/29 01:54:17;;;;;;;18.70;18.10;;;23.70;99.90;;;;;;4949541;29;20515;-65
2023/07/29 01:56:44;;;;;;;18.73;18.13;;;23.70;99.90;;;;;;4948912;29;20484;-65
2023/07/29 01:59:13;;;;;;;17.87;17.27;;;23.70;99.90;;;;;;4950874;29;20477;-63
2023/07/29 02:01:40;;;;;;;18.87;18.17;;;23.70;99.90;;;;;;4951539;28;20907;-64
2023/07/29 02:04:07;;;;;;;18.10;17.40;;;23.70;99.90;;;;;;4952245;28;20564;-65
2023/07/29 02:06:34;;;;;;;18.83;18.20;;;23.70;99.90;;;;;;4952236;28;20514;-64
2023/07/29 02:09:01;;;;;;;19.63;19.03;;;23.70;99.90;;;;;;4951503;28;20488;-64
2023/07/29 02:11:28;;;;;;;19.53;18.73;;;23.70;99.90;;;;;;4950285;28;20504;-65
2023/07/29 02:13:55;;;;;;;19.40;18.80;;;23.70;99.90;;;;;;4952044;28;20527;-63
2023/07/29 02:16:24;;;;;;;17.97;17.27;;;23.60;99.90;;;;;;4952082;28;20481;-65
2023/07/29 02:18:51;;;;;;;18.70;17.90;;;23.70;99.90;;;;;;4951052;29;20481;-64
2023/07/29 02:21:18;;;;;;;17.90;17.30;;;23.70;99.90;;;;;;4947228;28;20505;-64
2023/07/29 02:23:45;;;;;;;18.40;17.80;;;23.60;99.90;;;;;;4952262;29;20491;-64
2023/07/29 02:26:12;;;;;;;18.50;17.90;;;23.60;99.90;;;;;;4952036;28;20445;-65
2023/07/29 02:28:39;;;;;;;20.07;19.13;;;23.60;99.90;;;;;;4952004;28;20484;-63
2023/07/29 02:31:17;;;;;;;18.33;17.73;;;23.60;99.90;;;;;;4950596;29;20995;-63
2023/07/29 02:33:45;;;;;;;19.63;19.03;;;23.60;99.90;;;;;;4951070;28;20842;-63
2023/07/29 02:36:14;;;;;;;20.53;19.73;;;23.60;99.90;;;;;;4951721;29;20484;-65
2023/07/29 02:38:41;;;;;;;29.50;28.40;;;23.60;99.90;;;;;;4951669;28;20867;-65
2023/07/29 02:41:09;;;;;;;29.07;28.10;;;23.60;99.90;;;;;;4951477;28;20485;-64
2023/07/29 02:43:36;;;;;;;20.07;19.23;;;23.60;99.90;;;;;;4951937;28;21021;-64
2023/07/29 02:46:03;;;;;;;17.87;17.27;;;23.60;99.90;;;;;;4951577;28;20481;-63
2023/07/29 02:48:30;;;;;;;18.70;18.07;;;23.60;99.90;;;;;;4950957;29;20484;-65
2023/07/29 02:50:59;;;;;;;18.43;17.73;;;23.60;99.90;;;;;;4951489;28;20500;-63
2023/07/29 02:53:26;;;;;;;18.77;17.80;;;23.60;99.90;;;;;;4951568;29;21034;-61
2023/07/29 02:55:52;;;;;;;18.57;17.70;;;23.60;99.90;;;;;;4951429;29;20480;-65
2023/07/29 02:58:19;;;;;;;17.63;17.03;;;23.60;99.90;;;;;;4945381;28;20485;-63
2023/07/29 03:03:14;;;;;;;18.03;17.43;;;23.60;99.90;;;;;;4991736;28;20466;-59
2023/07/29 03:05:41;;;;;;;19.80;19.00;;;23.60;99.90;;;;;;4993203;28;20513;-61
2023/07/29 03:08:09;;;;;;;18.67;17.97;;;23.60;99.90;;;;;;4992571;28;20946;-60
2023/07/29 03:10:37;;;;;;;19.40;18.60;;;23.60;99.90;;;;;;4993106;28;20466;-58
2023/07/29 03:13:03;;;;;;;20.80;19.80;;;23.60;99.90;;;;;;4992868;28;20487;-59
2023/07/29 03:15:30;;;;;;;19.17;18.57;;;23.60;99.90;;;;;;4992828;28;20447;-59
2023/07/29 03:17:57;;;;;;;19.13;18.33;;;23.60;99.90;;;;;;4987253;28;20966;-60
2023/07/29 03:20:24;;;;;;;18.20;17.60;;;23.60;99.90;;;;;;4992925;28;20994;-59
2023/07/29 03:22:51;;;;;;;19.33;18.73;;;23.60;99.90;;;;;;4992565;28;20594;-58
2023/07/29 03:25:19;;;;;;;19.27;18.47;;;23.50;99.90;;;;;;4992787;28;20443;-60
2023/07/29 03:27:49;;;;;;;18.53;17.93;;;23.60;99.90;;;;;;4990143;28;20451;-60
2023/07/29 03:30:16;;;;;;;19.00;18.30;;;23.50;99.90;;;;;;4992580;28;20842;-59
2023/07/29 03:32:45;;;;;;;18.30;17.70;;;23.50;99.90;;;;;;4992424;28;20471;-58
2023/07/29 03:35:12;;;;;;;18.50;17.90;;;23.60;99.90;;;;;;4992469;28;20458;-59
2023/07/29 03:37:39;;;;;;;19.20;18.60;;;23.60;99.90;;;;;;4990049;28;20567;-59
2023/07/29 03:40:08;;;;;;;18.97;18.27;;;23.50;99.90;;;;;;4992426;28;20458;-60
2023/07/29 03:42:37;;;;;;;18.37;17.57;;;23.50;99.90;;;;;;4988825;28;20529;-60
2023/07/29 03:45:05;;;;;;;18.73;18.13;;;23.50;99.90;;;;;;4992222;28;20451;-60
2023/07/29 03:47:31;;;;;;;18.80;18.20;;;23.50;99.90;;;;;;4991936;28;20447;-59
2023/07/29 03:49:58;;;;;;;20.53;19.83;;;23.50;99.90;;;;;;4992164;28;20486;-57
2023/07/29 03:52:25;;;;;;;20.07;19.40;;;23.50;99.90;;;;;;4992348;28;20470;-58
2023/07/29 03:54:52;;;;;;;19.57;18.67;;;23.50;99.90;;;;;;4992017;28;20510;-57
2023/07/29 03:57:19;;;;;;;20.90;20.00;;;23.50;99.90;;;;;;4987833;28;20479;-59
2023/07/29 03:59:47;;;;;;;21.07;20.37;;;23.50;99.90;;;;;;4992173;28;20485;-59
2023/07/29 04:02:14;;;;;;;20.83;20.23;;;23.50;99.90;;;;;;4991799;28;20498;-61
2023/07/29 04:04:41;;;;;;;19.93;19.33;;;23.50;99.90;;;;;;4992134;28;20474;-60
2023/07/29 04:07:08;;;;;;;20.80;20.00;;;23.50;99.90;;;;;;4988211;28;20451;-60
2023/07/29 04:09:35;;;;;;;20.20;19.50;;;23.50;99.90;;;;;;4991724;28;20865;-60
2023/07/29 04:12:03;;;;;;;19.77;19.10;;;23.50;99.90;;;;;;4991964;28;20498;-60
2023/07/29 04:14:30;;;;;;;20.10;19.47;;;23.50;99.90;;;;;;4991998;28;20566;-58
2023/07/29 04:16:58;;;;;;;21.57;20.77;;;23.50;99.90;;;;;;4985357;28;20487;-59
2023/07/29 04:19:25;;;;;;;20.23;19.43;;;23.50;99.90;;;;;;4991955;28;20483;-60
2023/07/29 04:21:52;;;;;;;19.63;18.93;;;23.50;99.90;;;;;;4991727;28;20498;-60
2023/07/29 04:24:20;;;;;;;20.47;19.77;;;23.50;99.90;;;;;;4991865;28;20479;-61
2023/07/29 04:26:46;;;;;;;22.10;21.40;;;23.50;99.90;;;;;;4985545;28;20546;-59
2023/07/29 04:29:13;;;;;;;22.23;21.03;;;23.50;99.90;;;;;;4991582;28;20898;-59
2023/07/29 04:31:40;;;;;;;21.17;20.33;;;23.50;99.90;;;;;;4991734;28;20503;-60
2023/07/29 04:34:09;;;;;;;20.23;19.53;;;23.50;99.90;;;;;;4991185;28;20483;-57
2023/07/29 04:36:35;;;;;;;22.23;21.50;;;23.50;99.90;;;;;;4991809;28;20485;-56
2023/07/29 04:39:02;;;;;;;21.70;21.00;;;23.50;99.90;;;;;;4991768;28;20807;-61
2023/07/29 04:41:29;;;;;;;22.13;21.23;;;23.50;99.90;;;;;;4991763;28;20842;-59
2023/07/29 04:43:56;;;;;;;20.30;19.70;;;23.50;99.90;;;;;;4988449;28;20483;-58
2023/07/29 04:46:23;;;;;;;22.37;20.83;;;23.50;99.90;;;;;;4991571;28;20471;-59
2023/07/29 04:48:50;;;;;;;22.83;22.13;;;23.50;99.90;;;;;;4991653;28;20482;-60
2023/07/29 04:51:18;;;;;;;21.67;20.93;;;23.50;99.90;;;;;;4991558;28;20494;-59
2023/07/29 04:53:45;;;;;;;22.83;21.93;;;23.50;99.90;;;;;;4991404;28;21071;-62
2023/07/29 04:56:12;;;;;;;21.40;20.60;;;23.50;99.90;;;;;;4992810;28;20897;-55
2023/07/29 04:58:39;;;;;;;20.73;20.03;;;23.50;99.90;;;;;;4995347;28;20479;-58
2023/07/29 05:01:06;;;;;;;19.90;19.10;;;23.50;99.90;;;;;;4995173;28;20494;-58
2023/07/29 05:03:33;;;;;;;20.10;19.50;;;23.40;99.90;;;;;;4995235;28;20489;-58
2023/07/29 05:06:00;;;;;;;20.80;20.13;;;23.50;99.90;;;;;;4995136;28;20496;-58
2023/07/29 05:08:29;;;;;;;20.70;20.10;;;23.40;99.90;;;;;;4995363;28;20474;-60
2023/07/29 05:10:57;;;;;;;20.70;19.90;;;23.40;99.90;;;;;;4995189;28;20450;-60
2023/07/29 05:13:24;;;;;;;21.33;20.63;;;23.40;99.90;;;;;;4993334;28;20521;-58
2023/07/29 05:15:51;;;;;;;21.20;20.50;;;23.40;99.90;;;;;;4995177;28;20733;-59
2023/07/29 05:18:19;;;;;;;21.70;20.90;;;23.40;99.90;;;;;;4995028;28;20967;-59
2023/07/29 05:20:46;;;;;;;20.83;20.20;;;23.40;99.90;;;;;;4995196;28;20482;-60
2023/07/29 05:23:13;;;;;;;20.97;20.27;;;23.50;99.90;;;;;;4993234;28;20976;-57
2023/07/29 05:25:41;;;;;;;20.00;19.40;;;23.40;99.90;;;;;;4995039;28;20483;-57
2023/07/29 05:28:08;;;;;;;21.67;20.97;;;23.50;99.90;;;;;;4994641;28;20481;-57
2023/07/29 05:30:37;;;;;;;20.83;20.23;;;23.50;99.90;;;;;;4994988;28;20485;-56
2023/07/29 05:33:04;;;;;;;20.97;20.17;;;23.40;99.90;;;;;;4990625;28;20846;-55
2023/07/29 05:35:31;;;;;;;20.53;19.83;;;23.50;99.90;;;;;;4994700;28;20562;-55
2023/07/29 05:37:58;;;;;;;29.57;28.67;;;23.50;99.90;;;;;;4994492;28;20478;-62
2023/07/29 05:40:25;;;;;;;32.80;31.60;;;23.50;99.90;;;;;;4993552;28;20471;-60
2023/07/29 05:42:53;;;;;;;31.50;30.50;;;23.50;99.90;;;;;;4994520;28;20528;-64
2023/07/29 05:45:20;;;;;;;31.70;30.73;;;23.60;99.90;;;;;;4994332;28;20474;-56
2023/07/29 05:47:47;;;;;;;30.73;29.20;;;23.60;99.90;;;;;;4994548;28;20443;-61
2023/07/29 05:50:14;;;;;;;31.93;30.83;;;23.70;99.90;;;;;;4994062;28;20458;-60
2023/07/29 05:52:41;;;;;;;31.60;30.50;;;23.80;99.90;;;;;;4994361;28;20506;-57
2023/07/29 05:55:09;;;;;;;32.43;31.40;;;23.80;99.90;;;;;;4994292;28;20517;-56
2023/07/29 05:57:36;;;;;;;32.13;29.80;;;24.00;99.90;;;;;;4994250;28;20451;-60
2023/07/29 06:00:05;;;;;;;32.07;31.07;;;24.10;99.90;;;;;;4993739;28;20479;-57
2023/07/29 06:02:32;;;;;;;34.07;32.97;;;24.30;99.90;;;;;;4987613;28;20474;-59
2023/07/29 06:04:59;;;;;;;33.17;32.10;;;24.40;99.90;;;;;;4994267;28;20876;-59
2023/07/29 06:07:29;;;;;;;34.00;32.80;;;24.50;99.90;;;;;;4992797;28;20478;-60
2023/07/29 06:09:57;;;;;;;33.27;32.07;;;24.60;99.90;;;;;;4994006;28;20450;-60
2023/07/29 06:12:24;;;;;;;32.67;31.57;;;24.70;99.90;;;;;;4986678;28;20788;-64
2023/07/29 06:14:51;;;;;;;33.63;32.40;;;24.90;99.90;;;;;;4993969;28;20510;-56
2023/07/29 06:17:19;;;;;;;34.27;33.07;;;25.00;99.90;;;;;;4993833;28;20475;-62
2023/07/29 06:19:46;;;;;;;36.50;35.23;;;25.00;99.90;;;;;;4993959;28;20478;-62
2023/07/29 06:22:13;;;;;;;36.00;34.80;;;25.10;99.90;;;;;;4986860;28;20529;-64
2023/07/29 06:24:40;;;;;;;36.97;35.77;;;25.20;99.90;;;;;;4993836;28;20549;-57
2023/07/29 06:27:07;;;;;;;35.10;33.90;;;25.40;99.90;;;;;;4993668;28;20489;-65
2023/07/29 06:29:34;;;;;;;37.80;36.50;;;25.40;99.90;;;;;;4993903;28;20876;-65
2023/07/29 06:32:01;;;;;;;36.70;35.40;;;25.50;99.90;;;;;;4987216;28;21015;-66
2023/07/29 06:34:29;;;;;;;37.03;35.83;;;25.60;99.90;;;;;;4993701;28;20512;-66
2023/07/29 06:36:56;;;;;;;39.67;38.30;;;25.70;99.90;;;;;;4993557;28;20455;-67
2023/07/29 06:39:23;;;;;;;37.00;35.67;;;25.70;99.90;;;;;;4985726;28;20459;-64
2023/07/29 06:41:49;;;;;;;39.07;37.77;;;25.70;99.90;;;;;;4986995;28;20609;-66
2023/07/29 06:44:17;;;;;;;36.97;35.70;;;25.80;99.90;;;;;;4993452;28;20474;-67
2023/07/29 06:46:44;;;;;;;38.23;37.03;;;25.90;99.90;;;;;;4993516;28;20950;-66
2023/07/29 06:49:11;;;;;;;39.70;38.30;;;25.90;99.90;;;;;;4989529;28;20487;-65
2023/07/29 06:51:39;;;;;;;37.40;36.20;;;25.90;99.90;;;;;;4993276;28;20501;-66
2023/07/29 06:54:06;;;;;;;37.80;36.60;;;25.90;99.90;;;;;;4993135;28;20517;-63
2023/07/29 06:56:33;;;;;;;36.70;35.50;;;26.00;99.90;;;;;;4993325;28;20513;-67
2023/07/29 06:59:00;;;;;;;36.90;35.70;;;26.10;99.90;;;;;;4989701;28;20939;-66
2023/07/29 07:01:27;;;;;;;38.93;37.43;;;26.10;99.90;;;;;;4993114;28;20903;-59
2023/07/29 07:03:54;;;;;;;38.07;36.83;;;26.10;99.90;;;;;;4993154;28;20479;-60
2023/07/29 07:06:21;;;;;;;36.90;35.70;;;26.10;99.90;;;;;;4993060;28;20505;-64
2023/07/29 07:08:50;;;;;;;38.20;37.00;;;26.00;99.90;;;;;;4991603;28;20483;-65
2023/07/29 07:11:17;;;;;;;40.50;39.10;;;26.00;99.90;;;;;;4992097;28;20530;-64
2023/07/29 07:13:44;;;;;;;38.30;37.10;;;25.90;99.90;;;;;;4993180;28;20953;-64
2023/07/29 07:16:10;;;;;;;40.97;39.47;;;26.00;99.90;;;;;;4993042;28;20498;-64
2023/07/29 07:18:37;;;;;;;40.03;38.60;;;26.10;99.90;;;;;;4989621;28;20459;-66
2023/07/29 07:21:04;;;;;;;35.20;34.00;;;26.00;99.90;;;;;;4990164;28;20941;-66
2023/07/29 07:23:31;;;;;;;40.67;39.27;;;26.00;99.90;;;;;;4992892;28;20482;-66
2023/07/29 07:25:59;;;;;;;35.97;34.80;;;26.00;99.90;;;;;;4992701;28;20835;-62
2023/07/29 07:28:26;;;;;;;37.90;36.50;;;26.00;99.90;;;;;;4983756;28;20483;-62
2023/07/29 07:30:55;;;;;;;39.90;38.50;;;26.00;99.90;;;;;;4988722;28;20946;-58
2023/07/29 07:33:22;;;;;;;41.30;39.90;;;25.80;99.90;;;;;;4992740;28;20447;-58
2023/07/29 07:35:49;;;;;;;42.40;40.90;;;25.70;99.90;;;;;;4992424;28;20917;-55
2023/07/29 07:38:16;;;;;;;41.20;39.57;;;25.70;99.90;;;;;;4990312;28;20489;-57
2023/07/29 07:40:43;;;;;;;38.23;37.03;;;25.60;99.90;;;;;;4987161;28;20523;-58
2023/07/29 07:43:11;;;;;;;38.80;37.50;;;25.60;99.90;;;;;;4992434;28;20957;-58
2023/07/29 07:45:38;;;;;;;39.83;38.43;;;25.70;99.90;;;;;;4992415;28;20485;-58
2023/07/29 07:48:05;;;;;;;40.23;38.83;;;25.40;99.90;;;;;;4991754;28;20485;-58
2023/07/29 07:50:32;;;;;;;38.77;37.37;;;25.50;99.90;;;;;;4985358;28;20479;-61
2023/07/29 07:52:59;;;;;;;38.27;37.07;;;25.70;99.90;;;;;;4992259;28;20510;-62
2023/07/29 07:55:26;;;;;;;39.37;38.07;;;25.50;99.90;;;;;;4984413;28;21013;-61
2023/07/29 07:57:53;;;;;;;39.10;37.83;;;25.50;99.90;;;;;;4987474;28;20486;-62
2023/07/29 08:00:21;;;;;;;38.97;37.67;;;25.50;99.90;;;;;;4992249;28;20470;-60
2023/07/29 08:02:48;;;;;;;39.07;37.77;;;25.40;99.90;;;;;;4992082;28;20853;-64
2023/07/29 08:05:15;;;;;;;37.77;36.47;;;25.30;99.90;;;;;;4992001;28;20479;-65
2023/07/29 08:07:42;;;;;;;39.70;38.13;;;25.30;99.90;;;;;;4987209;28;20479;-63
2023/07/29 08:10:09;;;;;;;37.40;36.00;;;25.20;99.90;;;;;;4992122;28;20475;-60
2023/07/29 08:12:36;;;;;;;39.90;38.60;;;25.20;99.90;;;;;;4991978;28;20475;-61
2023/07/29 08:15:03;;;;;;;39.93;38.43;;;25.10;99.90;;;;;;4990577;28;20585;-62
2023/07/29 08:17:32;;;;;;;41.30;39.90;;;25.10;99.90;;;;;;4991241;28;20453;-61
2023/07/29 08:19:58;;;;;;;39.53;38.03;;;25.10;99.90;;;;;;4991758;28;20482;-61
2023/07/29 08:22:25;;;;;;;41.23;39.63;;;25.00;99.90;;;;;;4983901;28;20895;-64
2023/07/29 08:24:52;;;;;;;38.60;37.30;;;25.00;99.90;;;;;;4992009;28;20478;-61
2023/07/29 08:27:19;;;;;;;40.07;38.77;;;25.10;99.90;;;;;;4991445;28;20482;-65
2023/07/29 08:29:46;;;;;;;39.97;38.67;;;25.30;99.90;;;;;;4991757;28;20482;-63
2023/07/29 08:32:13;;;;;;;40.63;39.13;;;25.20;99.90;;;;;;4994984;28;20502;-65
2023/07/29 08:34:41;;;;;;;41.83;40.30;;;25.30;99.90;;;;;;4995910;28;21048;-65
2023/07/29 08:37:08;;;;;;;40.73;39.40;;;25.30;99.90;;;;;;4994863;28;20945;-66
2023/07/29 08:39:35;;;;;;;40.07;38.37;;;25.20;99.90;;;;;;4995859;28;20486;-61
2023/07/29 08:42:05;;;;;;;40.77;39.47;;;25.30;99.90;;;;;;4995553;28;20495;-59
2023/07/29 08:44:37;;;;;;;41.63;40.33;;;25.30;99.90;;;;;;4995820;28;20446;-65
2023/07/29 08:47:05;;;;;;;39.07;37.77;;;25.40;99.90;;;;;;4995092;28;20461;-64
2023/07/29 08:49:33;;;;;;;40.20;38.90;;;25.40;99.90;;;;;;4995570;28;20442;-68
2023/07/29 08:52:02;;;;;;;38.90;37.70;;;25.40;99.90;;;;;;4995502;28;20502;-66
2023/07/29 08:54:29;;;;;;;40.70;39.30;;;25.30;99.90;;;;;;4987797;28;20490;-65
2023/07/29 08:56:56;;;;;;;40.87;39.57;;;25.30;99.90;;;;;;4995058;28;20489;-66
2023/07/29 08:59:24;;;;;;;42.63;41.23;;;25.30;99.90;;;;;;4995299;28;20481;-66
2023/07/29 09:01:55;;;;;;;43.33;41.93;;;25.40;99.90;;;;;;4995436;28;20478;-68
2023/07/29 09:04:23;;;;;;;39.23;37.93;;;25.30;99.90;;;;;;4990081;28;20460;-69
2023/07/29 09:06:52;;;;;;;40.37;38.97;;;25.40;99.90;;;;;;4995163;28;20454;-69
2023/07/29 09:09:21;;;;;;;43.90;42.50;;;25.40;99.90;;;;;;4995449;28;20446;-65
2023/07/29 09:11:48;;;;;;;43.20;41.80;;;25.40;99.90;;;;;;4995383;28;20529;-65
2023/07/29 09:14:16;;;;;;;41.83;40.43;;;25.50;99.90;;;;;;4990527;28;20596;-68
2023/07/29 09:16:43;;;;;;;42.10;40.80;;;25.60;99.90;;;;;;4995380;28;20541;-67
2023/07/29 09:19:10;;;;;;;39.20;37.80;;;25.60;99.90;;;;;;4996006;28;20865;-65
2023/07/29 09:21:40;;;;;;;43.90;42.50;;;25.70;99.90;;;;;;4995448;28;20506;-66
2023/07/29 09:24:08;;;;;;;41.27;39.67;;;25.80;99.90;;;;;;4990500;28;20518;-66
2023/07/29 09:26:36;;;;;;;40.93;39.63;;;25.80;99.90;;;;;;4995862;28;20447;-67
2023/07/29 09:29:04;;;;;;;40.80;39.50;;;25.90;99.90;;;;;;4995473;28;20482;-67
2023/07/29 09:31:31;;;;;;;43.13;41.73;;;26.00;99.90;;;;;;4995790;28;20509;-67
2023/07/29 09:33:59;;;;;;;42.10;40.43;;;26.10;99.90;;;;;;4991766;28;20528;-66
2023/07/29 09:36:26;;;;;;;43.17;41.77;;;26.10;99.90;;;;;;4994647;28;20529;-66
2023/07/29 09:38:54;;;;;;;42.20;40.90;;;26.10;99.90;;;;;;4995086;28;20489;-67
2023/07/29 09:41:24;;;;;;;41.80;40.40;;;26.10;99.90;;;;;;4995225;28;20467;-67
2023/07/29 09:43:57;;;;;;;39.70;38.40;;;26.00;99.90;;;;;;4992595;28;20455;-67
2023/07/29 09:46:25;;;;;;;40.50;39.10;;;26.00;99.90;;;;;;4994397;28;20450;-67
2023/07/29 09:48:56;;;;;;;42.17;40.77;;;26.10;99.90;;;;;;4994954;28;20454;-66
2023/07/29 09:51:23;;;;;;;40.37;39.07;;;26.10;99.90;;;;;;4994711;28;20478;-68
2023/07/29 09:53:51;;;;;;;42.70;41.30;;;26.00;99.90;;;;;;4992357;28;20486;-66
2023/07/29 09:56:19;;;;;;;41.40;40.10;;;26.00;99.90;;;;;;4992848;28;20482;-67
2023/07/29 09:58:46;;;;;;;41.27;39.97;;;25.90;99.90;;;;;;4994233;28;20483;-69
2023/07/29 10:01:15;;;;;;;39.13;37.90;;;26.00;99.90;;;;;;4994123;28;20502;-70
2023/07/29 10:03:42;;;;;;;38.60;36.97;;;26.10;99.90;;;;;;4994026;28;20447;-63
2023/07/29 10:06:09;;;;;;;41.43;40.03;;;26.10;99.90;;;;;;4991325;28;20501;-66
2023/07/29 10:08:38;;;;;;;41.00;39.43;;;26.20;99.90;;;;;;4994095;28;20481;-70
2023/07/29 10:11:08;;;;;;;39.87;38.57;;;26.30;99.90;;;;;;4994367;28;20463;-73
2023/07/29 10:13:35;;;;;;;40.57;39.17;;;26.20;99.90;;;;;;4993820;28;20487;-65
2023/07/29 10:16:03;;;;;;;40.00;38.67;;;26.20;99.90;;;;;;4994824;28;20510;-68
2023/07/29 10:18:32;;;;;;;42.30;40.83;;;26.30;99.90;;;;;;4993927;28;20443;-60
2023/07/29 10:21:00;;;;;;;41.97;40.57;;;26.30;99.90;;;;;;4994105;28;20478;-64
2023/07/29 10:23:32;;;;;;;40.63;39.17;;;26.40;99.90;;;;;;4986463;28;20443;-64
2023/07/29 10:26:04;;;;;;;39.60;38.30;;;26.40;99.80;;;;;;4993883;28;21005;-65
2023/07/29 10:28:31;;;;;;;39.43;38.13;;;26.30;99.90;;;;;;4985840;28;20453;-65
2023/07/29 10:30:59;;;;;;;41.63;40.20;;;26.30;99.90;;;;;;4993541;28;20482;-67
2023/07/29 10:33:26;;;;;;;42.90;41.20;;;26.30;99.90;;;;;;4987030;28;20455;-65
2023/07/29 10:35:56;;;;;;;41.60;40.30;;;26.40;99.70;;;;;;4993548;28;20606;-64
2023/07/29 10:38:24;;;;;;;40.67;39.37;;;26.40;99.70;;;;;;4993532;28;20494;-65
2023/07/29 10:40:55;;;;;;;38.37;37.07;;;26.50;99.20;;;;;;4993581;28;20941;-64
2023/07/29 10:43:26;;;;;;;41.43;40.10;;;26.60;99.10;;;;;;4986858;28;20455;-65
2023/07/29 10:45:53;;;;;;;41.47;40.17;;;26.50;98.70;;;;;;4989948;28;20471;-65
2023/07/29 10:48:43;;;;;;;39.97;38.67;;;26.50;98.30;;;;;;4993344;28;20482;-66
2023/07/29 10:51:30;;;;;;;41.50;40.10;;;26.50;98.90;;;;;;4993228;28;20554;-67
2023/07/29 10:53:58;;;;;;;40.15;38.85;;;26.60;98.70;;;;;;4986238;28;20487;-63
2023/07/29 10:56:31;;;;;;;40.70;39.30;;;26.60;98.80;;;;;;4993125;28;20219;-63
2023/07/29 10:58:59;;;;;;;40.70;39.30;;;26.60;98.30;;;;;;4993187;28;20505;-69
2023/07/29 11:01:32;;;;;;;41.53;40.20;;;26.60;98.20;;;;;;4993103;28;20522;-67
2023/07/29 11:04:26;;;;;;;42.53;41.03;;;26.70;98.20;;;;;;4990920;28;20455;-65
2023/07/29 11:07:29;;;;;;;43.47;42.07;;;26.70;97.50;;;;;;4985762;28;20451;-68
2023/07/29 11:10:05;;;;;;;43.40;41.93;;;26.70;97.30;;;;;;4988504;28;20474;-66
2023/07/29 11:12:43;;;;;;;38.35;37.05;;;26.70;97.60;;;;;;4984763;28;20451;-67
2023/07/29 11:15:22;;;;;;;42.83;41.43;;;26.60;97.50;;;;;;4992722;28;20628;-67
2023/07/29 11:17:51;;;;;;;44.60;43.10;;;26.70;97.80;;;;;;4992746;28;20517;-67
2023/07/29 11:20:19;;;;;;;45.60;44.03;;;26.80;97.90;;;;;;4987784;28;20455;-65
2023/07/29 11:22:47;;;;;;;43.60;42.10;;;26.80;97.40;;;;;;4992888;28;20475;-65
2023/07/29 11:25:16;;;;;;;42.50;41.00;;;26.80;97.30;;;;;;4992679;28;20450;-64
2023/07/29 11:27:43;;;;;;;44.90;43.43;;;26.80;97.40;;;;;;4992588;28;20451;-67
2023/07/29 11:30:12;;;;;;;42.60;41.20;;;26.80;97.30;;;;;;4987881;28;20566;-67
2023/07/29 11:32:41;;;;;;;41.63;40.33;;;26.70;97.00;;;;;;4992703;28;20509;-66
2023/07/29 11:35:09;;;;;;;43.70;42.20;;;26.80;97.40;;;;;;4992404;28;20525;-66
2023/07/29 11:37:36;;;;;;;42.53;40.87;;;26.70;97.30;;;;;;4992313;28;20460;-65
2023/07/29 11:40:06;;;;;;;41.43;40.03;;;26.70;97.40;;;;;;4988154;28;20454;-66
2023/07/29 11:42:34;;;;;;;44.23;42.73;;;26.70;97.70;;;;;;4984449;28;20498;-65
2023/07/29 11:45:01;;;;;;;30.50;29.30;;;26.60;97.20;;;;;;4992425;28;20469;-66
2023/07/29 11:47:28;;;;;;;29.70;28.60;;;26.70;97.30;;;;;;4992129;28;20447;-61
2023/07/29 11:49:59;;;;;;;28.43;27.33;;;26.70;97.10;;;;;;4987912;28;20486;-65
2023/07/29 11:52:25;;;;;;;30.90;29.80;;;26.70;96.80;;;;;;4992104;28;20467;-69
2023/07/29 11:54:54;;;;;;;32.80;31.70;;;26.70;96.60;;;;;;4992207;28;20474;-69
2023/07/29 11:57:22;;;;;;;30.43;29.40;;;26.70;96.60;;;;;;4991881;28;20518;-70
2023/07/29 11:59:49;;;;;;;31.27;29.97;;;26.70;96.60;;;;;;4987912;28;20553;-69
2023/07/29 12:02:17;;;;;;;30.73;29.63;;;26.60;97.00;;;;;;4991308;28;20510;-69
2023/07/29 12:04:47;;;;;;;32.33;31.13;;;26.60;97.10;;;;;;4991330;28;20446;-69
2023/07/29 12:07:15;;;;;;;31.30;30.20;;;26.50;97.40;;;;;;4991006;28;20439;-70
2023/07/29 12:09:43;;;;;;;30.67;29.57;;;26.50;97.90;;;;;;4987393;28;20486;-66
2023/07/29 12:12:10;;;;;;;30.30;29.20;;;26.30;98.10;;;;;;4991225;28;20525;-69
2023/07/29 12:14:38;;;;;;;30.37;29.27;;;26.30;98.10;;;;;;4991385;28;20483;-66
2023/07/29 12:17:06;;;;;;;32.37;31.17;;;26.20;98.30;;;;;;4990901;28;20534;-66
2023/07/29 12:19:34;;;;;;;32.43;31.23;;;26.20;98.90;;;;;;4988316;28;20483;-65
2023/07/29 12:22:02;;;;;;;31.30;30.10;;;26.10;98.90;;;;;;4991067;28;20478;-65
2023/07/29 12:24:31;;;;;;;30.07;28.97;;;26.10;99.00;;;;;;4991018;28;20478;-66
2023/07/29 12:26:58;;;;;;;30.53;29.33;;;26.00;99.40;;;;;;4990957;28;20474;-66
2023/07/29 12:29:24;;;;;;;31.53;30.37;;;26.00;99.30;;;;;;4990738;28;20521;-66
2023/07/29 12:32:00;;;;;;;31.03;29.93;;;25.90;99.70;;;;;;4991156;28;20906;-65
2023/07/29 12:34:28;;;;;;;29.77;28.60;;;25.90;99.90;;;;;;4991277;28;20482;-65
2023/07/29 12:36:57;;;;;;;30.80;29.70;;;25.90;99.80;;;;;;4990807;28;20483;-64